createdAt,value
2019-04-10T00:02:07.082Z,2.52
2019-04-10T00:04:35.460Z,2.60
2019-04-10T00:07:12.754Z,2.77
2019-04-10T00:09:34.936Z,2.50
2019-04-10T00:12:03.957Z,2.52
2019-04-10T00:14:32.464Z,2.75
2019-04-10T00:17:00.854Z,2.60
2019-04-10T00:19:29.278Z,2.15
2019-04-10T00:21:57.825Z,2.20
2019-04-10T00:24:26.173Z,2.22
2019-04-10T00:26:54.579Z,2.30
2019-04-10T00:29:22.978Z,2.08
2019-04-10T00:31:51.388Z,2.67
2019-04-10T00:34:19.773Z,2.05
2019-04-10T00:36:48.892Z,1.87
2019-04-10T00:39:18.067Z,1.84
2019-04-10T00:41:46.540Z,1.70
2019-04-10T00:44:15.325Z,2.00
2019-04-10T00:46:43.692Z,1.90
2019-04-10T00:49:12.010Z,2.30
2019-04-10T00:51:41.530Z,1.70
2019-04-10T00:54:10.003Z,2.27
2019-04-10T00:56:38.951Z,2.10
2019-04-10T00:59:08.763Z,1.75
2019-04-10T01:01:37.786Z,2.30
2019-04-10T01:04:07.092Z,2.72
2019-04-10T01:06:36.221Z,2.15
2019-04-10T01:09:07.612Z,2.12
2019-04-10T01:11:36.144Z,2.33
2019-04-10T01:14:05.385Z,2.02
2019-04-10T01:16:33.974Z,2.02
2019-04-10T01:19:02.362Z,2.45
2019-04-10T01:21:30.956Z,2.10
2019-04-10T01:23:59.495Z,2.50
2019-04-10T01:26:28.242Z,1.95
2019-04-10T01:28:57.485Z,2.15
2019-04-10T01:31:26.767Z,2.10
2019-04-10T01:33:55.254Z,2.08
2019-04-10T01:36:23.852Z,2.52
2019-04-10T01:38:52.292Z,2.75
2019-04-10T01:41:20.660Z,2.33
2019-04-10T01:43:49.022Z,1.90
2019-04-10T01:46:17.979Z,2.40
2019-04-10T01:48:46.338Z,2.70
2019-04-10T01:51:15.155Z,2.55
2019-04-10T01:53:44.159Z,2.50
2019-04-10T01:56:24.774Z,2.50
2019-04-10T01:58:47.931Z,3.17
2019-04-10T02:01:21.043Z,2.77
2019-04-10T02:03:49.947Z,3.00
2019-04-10T02:06:18.899Z,3.00
2019-04-10T02:08:47.837Z,2.87
2019-04-10T02:11:16.199Z,2.58
2019-04-10T02:13:44.631Z,3.08
2019-04-10T02:16:13.016Z,2.98
2019-04-10T02:21:22.167Z,3.00
2019-04-10T02:23:52.400Z,2.50
2019-04-10T02:26:21.291Z,3.15
2019-04-10T02:28:59.542Z,3.10
2019-04-10T02:31:28.624Z,3.25
2019-04-10T02:33:59.900Z,3.02
2019-04-10T02:36:31.054Z,2.70
2019-04-10T02:39:10.086Z,3.17
2019-04-10T02:41:29.694Z,2.83
2019-04-10T02:43:59.827Z,2.92
2019-04-10T02:46:29.295Z,2.47
2019-04-10T02:48:58.101Z,2.37
2019-04-10T02:51:27.078Z,2.85
2019-04-10T02:53:58.151Z,2.47
2019-04-10T02:56:26.595Z,2.90
2019-04-10T02:58:56.573Z,2.80
2019-04-10T03:01:25.277Z,3.30
2019-04-10T03:03:55.501Z,3.00
2019-04-10T03:06:27.248Z,3.37
2019-04-10T03:09:12.381Z,2.72
2019-04-10T03:11:27.813Z,3.05
2019-04-10T03:13:56.079Z,3.10
2019-04-10T03:16:24.516Z,2.60
2019-04-10T03:18:54.873Z,3.05
2019-04-10T03:21:23.283Z,2.75
2019-04-10T03:23:51.790Z,2.87
2019-04-10T03:26:20.106Z,3.25
2019-04-10T03:28:49.373Z,3.22
2019-04-10T03:31:19.861Z,3.30
2019-04-10T03:33:55.269Z,3.37
2019-04-10T03:36:23.218Z,3.42
2019-04-10T03:38:58.591Z,3.00
2019-04-10T03:41:21.758Z,3.40
2019-04-10T03:43:50.221Z,3.67
2019-04-10T03:46:19.482Z,3.10
2019-04-10T03:48:47.909Z,3.08
2019-04-10T03:51:16.581Z,3.50
2019-04-10T03:53:46.698Z,3.67
2019-04-10T03:56:15.781Z,3.40
2019-04-10T03:58:44.199Z,3.15
2019-04-10T04:01:14.486Z,3.30
2019-04-10T04:03:43.242Z,3.20
2019-04-10T04:06:11.686Z,3.17
2019-04-10T04:08:40.064Z,3.43
2019-04-10T04:11:09.194Z,3.67
2019-04-10T04:13:37.629Z,3.15
2019-04-10T04:16:06.742Z,3.30
2019-04-10T04:18:35.334Z,3.40
2019-04-10T04:21:03.788Z,3.52
2019-04-10T04:23:32.309Z,3.42
2019-04-10T04:26:00.981Z,3.97
2019-04-10T04:28:29.817Z,3.50
2019-04-10T04:30:58.871Z,3.40
2019-04-10T04:33:27.660Z,4.42
2019-04-10T04:35:56.238Z,3.85
2019-04-10T04:38:25.623Z,3.40
2019-04-10T04:40:54.784Z,3.80
2019-04-10T04:43:23.376Z,3.40
2019-04-10T04:45:52.979Z,3.47
2019-04-10T04:48:21.964Z,3.40
2019-04-10T04:50:50.464Z,3.60
2019-04-10T04:53:18.834Z,2.90
2019-04-10T04:55:47.202Z,3.27
2019-04-10T04:58:16.118Z,3.33
2019-04-10T05:00:44.546Z,3.67
2019-04-10T05:03:13.087Z,3.98
2019-04-10T05:05:43.347Z,3.80
2019-04-10T05:08:11.824Z,3.42
2019-04-10T05:10:40.189Z,3.87
2019-04-10T05:13:08.554Z,3.15
2019-04-10T05:15:37.354Z,3.30
2019-04-10T05:18:06.248Z,4.10
2019-04-10T05:20:43.711Z,3.40
2019-04-10T05:23:04.723Z,3.47
2019-04-10T05:25:34.352Z,3.37
2019-04-10T05:28:03.640Z,3.95
2019-04-10T05:30:32.040Z,3.92
2019-04-10T05:33:00.393Z,3.60
2019-04-10T05:35:29.827Z,3.60
2019-04-10T05:37:58.289Z,4.17
2019-04-10T05:40:26.607Z,3.58
2019-04-10T05:42:55.503Z,3.83
2019-04-10T05:45:24.020Z,3.50
2019-04-10T05:47:52.852Z,3.58
2019-04-10T05:50:21.581Z,3.20
2019-04-10T05:52:50.014Z,3.80
2019-04-10T05:55:20.448Z,2.93
2019-04-10T05:57:49.003Z,3.47
2019-04-10T06:00:18.826Z,3.80
2019-04-10T06:02:48.164Z,3.62
2019-04-10T06:05:16.586Z,3.45
2019-04-10T06:07:45.456Z,2.93
2019-04-10T06:10:14.049Z,3.72
2019-04-10T06:12:42.719Z,3.55
2019-04-10T06:15:11.180Z,3.80
2019-04-10T06:17:40.604Z,3.90
2019-04-10T06:20:09.238Z,4.00
2019-04-10T06:22:38.888Z,3.77
2019-04-10T06:25:09.307Z,3.47
2019-04-10T06:27:37.317Z,3.80
2019-04-10T06:30:07.892Z,3.42
2019-04-10T06:32:36.214Z,3.55
2019-04-10T06:35:05.842Z,3.35
2019-04-10T06:37:34.530Z,4.20
2019-04-10T06:40:12.725Z,3.93
2019-04-10T06:42:44.548Z,3.93
2019-04-10T06:45:05.626Z,3.87
2019-04-10T06:47:34.018Z,3.30
2019-04-10T06:50:04.361Z,3.82
2019-04-10T06:52:32.794Z,4.00
2019-04-10T06:55:01.234Z,4.10
2019-04-10T06:57:30.540Z,3.67
2019-04-10T06:59:59.786Z,3.85
2019-04-10T07:02:31.598Z,4.20
2019-04-10T07:05:04.708Z,3.23
2019-04-10T07:07:43.429Z,4.05
2019-04-10T07:09:59.938Z,3.50
2019-04-10T07:12:32.891Z,3.55
2019-04-10T07:14:59.646Z,3.70
2019-04-10T07:17:29.246Z,3.00
2019-04-10T07:19:57.645Z,3.20
2019-04-10T07:22:26.887Z,2.90
2019-04-10T07:24:56.360Z,3.17
2019-04-10T07:27:24.903Z,3.45
2019-04-10T07:29:57.398Z,3.97
2019-04-10T07:32:24.362Z,3.25
2019-04-10T07:34:56.451Z,2.63
2019-04-10T07:37:24.538Z,5.10
2019-04-10T07:39:53.000Z,3.33
2019-04-10T07:42:30.443Z,3.52
2019-04-10T07:44:51.460Z,3.50
2019-04-10T07:47:21.173Z,3.60
2019-04-10T07:49:50.333Z,3.05
2019-04-10T07:52:21.075Z,3.70
2019-04-10T07:54:48.764Z,3.02
2019-04-10T07:57:17.182Z,3.67
2019-04-10T07:59:45.563Z,3.33
2019-04-10T08:02:18.109Z,2.75
2019-04-10T08:04:47.328Z,3.80
2019-04-10T08:07:27.646Z,3.70
2019-04-10T08:09:46.364Z,4.07
2019-04-10T08:12:15.541Z,3.98
2019-04-10T08:14:44.281Z,3.47
2019-04-10T08:17:12.675Z,3.02
2019-04-10T08:19:41.179Z,3.27
2019-04-10T08:22:10.262Z,2.92
2019-04-10T08:24:38.690Z,3.45
2019-04-10T08:27:07.405Z,3.42
2019-04-10T08:29:39.293Z,3.22
2019-04-10T08:32:07.788Z,3.23
2019-04-10T08:34:36.170Z,3.12
2019-04-10T08:37:04.536Z,3.37
2019-04-10T08:39:40.172Z,3.45
2019-04-10T08:42:03.173Z,2.75
2019-04-10T08:44:31.895Z,3.40
2019-04-10T08:47:00.348Z,2.77
2019-04-10T08:49:28.699Z,3.20
2019-04-10T08:51:57.863Z,2.87
2019-04-10T08:54:26.276Z,2.92
2019-04-10T08:56:56.800Z,2.72
2019-04-10T08:59:25.272Z,2.72
2019-04-10T09:01:53.759Z,2.85
2019-04-10T09:04:22.145Z,2.97
2019-04-10T09:06:51.529Z,2.83
2019-04-10T09:09:19.959Z,2.70
2019-04-10T09:11:49.308Z,2.70
2019-04-10T09:14:17.795Z,2.60
2019-04-10T09:16:46.852Z,2.70
2019-04-10T09:19:16.096Z,2.90
2019-04-10T09:21:45.678Z,2.70
2019-04-10T09:24:15.323Z,3.17
2019-04-10T09:26:44.549Z,2.80
2019-04-10T09:29:14.067Z,2.92
2019-04-10T09:31:42.457Z,4.83
2019-04-10T09:34:11.763Z,3.08
2019-04-10T09:36:40.229Z,3.33
2019-04-10T09:39:09.527Z,3.37
2019-04-10T09:41:39.583Z,3.00
2019-04-10T09:44:07.971Z,3.43
2019-04-10T09:46:37.333Z,3.45
2019-04-10T09:49:06.891Z,3.17
2019-04-10T09:51:36.158Z,3.67
2019-04-10T09:54:05.586Z,3.10
2019-04-10T09:56:34.323Z,3.40
2019-04-10T09:59:02.870Z,3.08
2019-04-10T10:01:31.306Z,3.33
2019-04-10T10:03:59.721Z,2.90
2019-04-10T10:06:32.101Z,2.53
2019-04-10T10:09:00.529Z,2.80
2019-04-10T10:11:34.060Z,3.10
2019-04-10T10:14:06.174Z,3.20
2019-04-10T10:16:35.773Z,2.70
2019-04-10T10:19:07.965Z,2.65
2019-04-10T10:21:36.661Z,3.00
2019-04-10T10:24:10.962Z,5.87
2019-04-10T10:26:44.512Z,4.08
2019-04-10T10:29:13.855Z,4.58
2019-04-10T10:31:44.373Z,10.33
2019-04-10T10:34:12.830Z,5.92
2019-04-10T10:36:45.069Z,3.58
2019-04-10T10:39:19.026Z,4.17
2019-04-10T10:41:49.013Z,3.15
2019-04-10T10:44:17.410Z,2.58
2019-04-10T10:46:45.833Z,3.00
2019-04-10T10:49:14.198Z,3.05
2019-04-10T10:51:42.645Z,2.70
2019-04-10T10:54:10.977Z,3.20
2019-04-10T10:56:39.405Z,3.08
2019-04-10T10:59:07.809Z,2.50
2019-04-10T11:01:36.243Z,2.80
2019-04-10T11:04:04.797Z,2.90
2019-04-10T11:06:33.231Z,2.80
2019-04-10T11:09:01.972Z,2.75
2019-04-10T11:11:30.788Z,2.90
2019-04-10T11:13:59.241Z,2.83
2019-04-10T11:16:27.729Z,3.42
2019-04-10T11:18:57.633Z,3.12
2019-04-10T11:21:27.370Z,3.26
2019-04-10T11:23:55.948Z,2.98
2019-04-10T11:26:25.649Z,3.17
2019-04-10T11:28:55.708Z,2.92
2019-04-10T11:31:25.191Z,2.85
2019-04-10T11:33:55.842Z,3.08
2019-04-10T11:36:23.712Z,3.08
2019-04-10T11:38:54.856Z,3.00
2019-04-10T11:41:23.328Z,3.12
2019-04-10T11:43:52.656Z,3.33
2019-04-10T11:46:22.718Z,2.80
2019-04-10T11:48:54.177Z,2.37
2019-04-10T11:51:23.520Z,2.62
2019-04-10T11:53:56.405Z,2.70
2019-04-10T11:56:23.639Z,2.67
2019-04-10T11:58:56.308Z,3.12
2019-04-10T12:01:23.441Z,2.92
2019-04-10T12:03:55.035Z,2.67
2019-04-10T12:06:25.002Z,2.80
2019-04-10T12:09:13.255Z,2.80
2019-04-10T12:11:23.104Z,2.80
2019-04-10T12:13:51.536Z,3.25
2019-04-10T12:16:20.814Z,2.93
2019-04-10T12:18:49.336Z,2.67
2019-04-10T12:21:17.793Z,2.60
2019-04-10T12:23:47.266Z,2.70
2019-04-10T12:26:15.880Z,2.40
2019-04-10T12:28:44.389Z,2.58
2019-04-10T12:31:12.842Z,2.77
2019-04-10T12:33:42.223Z,3.13
2019-04-10T12:36:11.852Z,2.67
2019-04-10T12:38:41.254Z,2.80
2019-04-10T12:41:10.951Z,2.52
2019-04-10T12:43:41.077Z,3.08
2019-04-10T12:46:10.674Z,2.60
2019-04-10T12:48:39.177Z,2.63
2019-04-10T12:51:07.739Z,2.77
2019-04-10T12:53:36.185Z,2.92
2019-04-10T12:56:04.552Z,3.25
2019-04-10T12:58:32.998Z,2.72
2019-04-10T13:01:02.507Z,2.47
2019-04-10T13:03:31.320Z,2.83
2019-04-10T13:05:59.850Z,2.80
2019-04-10T13:08:47.505Z,3.00
2019-04-10T13:10:58.382Z,2.83
2019-04-10T13:13:27.571Z,2.80
2019-04-10T13:15:59.220Z,2.70
2019-04-10T13:18:28.062Z,2.75
2019-04-10T13:20:56.498Z,2.45
2019-04-10T13:23:24.898Z,2.70
2019-04-10T13:25:59.133Z,2.58
2019-04-10T13:28:24.058Z,2.80
2019-04-10T13:30:54.111Z,2.35
2019-04-10T13:33:22.639Z,2.52
2019-04-10T13:35:51.213Z,2.70
2019-04-10T13:38:27.634Z,2.05
2019-04-10T13:40:50.113Z,2.02
2019-04-10T13:43:18.583Z,2.17
2019-04-10T13:45:46.971Z,1.98
2019-04-10T13:48:16.420Z,2.10
2019-04-10T13:50:44.861Z,1.90
2019-04-10T13:53:13.463Z,2.25
2019-04-10T13:55:42.249Z,1.85
2019-04-10T13:58:10.820Z,2.00
2019-04-10T14:00:41.144Z,2.25
2019-04-10T14:03:10.129Z,2.23
2019-04-10T14:05:39.085Z,2.00
2019-04-10T14:08:08.419Z,1.87
2019-04-10T14:10:39.353Z,2.10
2019-04-10T14:13:07.458Z,2.10
2019-04-10T14:15:35.975Z,2.25
2019-04-10T14:18:04.470Z,2.20
2019-04-10T14:20:32.890Z,2.25
2019-04-10T14:23:08.607Z,2.47
2019-04-10T14:25:42.091Z,2.60
2019-04-10T14:28:11.013Z,2.37
2019-04-10T14:30:41.060Z,2.40
2019-04-10T14:33:10.510Z,5.08
2019-04-10T14:35:39.092Z,2.58
2019-04-10T14:38:08.494Z,2.47
2019-04-10T14:40:37.986Z,2.75
2019-04-10T14:43:07.370Z,2.27
2019-04-10T14:45:37.396Z,2.72
2019-04-10T14:48:05.840Z,2.80
2019-04-10T14:50:34.265Z,2.40
2019-04-10T14:53:02.731Z,2.55
2019-04-10T14:55:31.118Z,2.50
2019-04-10T14:57:59.555Z,2.77
2019-04-10T15:00:32.878Z,2.77
2019-04-10T15:03:02.241Z,2.60
2019-04-10T15:05:30.632Z,2.77
2019-04-10T15:07:59.944Z,2.50
2019-04-10T15:10:28.322Z,2.87
2019-04-10T15:13:07.497Z,2.95
2019-04-10T15:15:26.823Z,2.83
2019-04-10T15:17:56.088Z,2.20
2019-04-10T15:20:24.986Z,2.37
2019-04-10T15:22:53.508Z,2.02
2019-04-10T15:25:22.997Z,2.08
2019-04-10T15:27:51.707Z,2.25
2019-04-10T15:30:20.391Z,2.40
2019-04-10T15:32:49.724Z,2.33
2019-04-10T15:35:18.200Z,2.20
2019-04-10T15:37:47.255Z,2.35
2019-04-10T15:40:20.918Z,2.30
2019-04-10T15:42:46.030Z,2.00
2019-04-10T15:45:14.781Z,2.40
2019-04-10T15:47:50.688Z,2.50
2019-04-10T15:50:15.814Z,2.45
2019-04-10T15:52:45.144Z,2.30
2019-04-10T15:55:13.609Z,2.42
2019-04-10T15:57:50.013Z,2.50
2019-04-10T16:00:12.762Z,2.52
2019-04-10T16:02:41.280Z,2.40
2019-04-10T16:05:09.706Z,2.50
2019-04-10T16:07:38.324Z,6.30
2019-04-10T16:10:28.654Z,3.62
2019-04-10T16:13:04.589Z,2.25
2019-04-10T16:15:34.780Z,2.20
2019-04-10T16:18:11.395Z,2.40
2019-04-10T16:20:40.959Z,2.52
2019-04-10T16:23:14.678Z,1.96
2019-04-10T16:25:44.876Z,2.40
2019-04-10T16:28:14.547Z,2.22
2019-04-10T16:30:44.185Z,2.37
2019-04-10T16:33:12.481Z,2.30
2019-04-10T16:35:40.943Z,3.02
2019-04-10T16:38:09.302Z,2.33
2019-04-10T16:40:38.327Z,2.47
2019-04-10T16:43:07.855Z,2.72
2019-04-10T16:45:36.433Z,3.10
2019-04-10T16:48:04.798Z,2.67
2019-04-10T16:50:34.183Z,2.77
2019-04-10T16:53:03.373Z,2.60
2019-04-10T16:55:32.568Z,2.40
2019-04-10T16:58:01.257Z,3.35
2019-04-10T17:00:29.714Z,2.80
2019-04-10T17:02:58.070Z,3.20
2019-04-10T17:05:26.506Z,3.08
2019-04-10T17:07:55.289Z,3.20
2019-04-10T17:10:27.347Z,3.08
2019-04-10T17:12:56.294Z,3.40
2019-04-10T17:15:24.660Z,3.15
2019-04-10T17:17:53.020Z,2.90
2019-04-10T17:20:22.528Z,3.20
2019-04-10T17:22:51.973Z,3.05
2019-04-10T17:25:24.328Z,3.40
2019-04-10T17:27:52.756Z,3.45
2019-04-10T17:30:21.960Z,3.63
2019-04-10T17:32:50.443Z,3.60
2019-04-10T17:35:19.347Z,3.44
2019-04-10T17:37:47.852Z,3.70
2019-04-10T17:40:27.354Z,3.47
2019-04-10T17:42:46.486Z,3.85
2019-04-10T17:45:14.904Z,3.47
2019-04-10T17:47:43.474Z,3.10
2019-04-10T17:50:14.126Z,3.95
2019-04-10T17:52:42.955Z,3.83
2019-04-10T17:55:11.519Z,3.90
2019-04-10T17:57:43.357Z,3.90
2019-04-10T18:00:20.815Z,4.00
2019-04-10T18:02:49.184Z,4.05
2019-04-10T18:05:18.189Z,4.35
2019-04-10T18:07:48.189Z,5.35
2019-04-10T18:10:16.703Z,6.08
2019-04-10T18:12:46.065Z,6.60
2019-04-10T18:15:15.638Z,7.30
2019-04-10T18:17:44.133Z,8.63
2019-04-10T18:20:12.641Z,8.70
2019-04-10T18:22:44.910Z,9.33
2019-04-10T18:25:20.170Z,7.97
2019-04-10T18:27:49.091Z,6.72
2019-04-10T18:30:17.742Z,6.60
2019-04-10T18:32:47.622Z,7.15
2019-04-10T18:35:16.407Z,6.80
2019-04-10T18:37:47.674Z,6.90
2019-04-10T18:40:15.946Z,7.10
2019-04-10T18:42:47.487Z,7.23
2019-04-10T18:45:15.932Z,7.80
2019-04-10T18:47:44.354Z,8.03
2019-04-10T18:50:13.000Z,7.42
2019-04-10T18:52:41.514Z,9.53
2019-04-10T18:55:10.040Z,9.08
2019-04-10T18:57:38.962Z,8.37
2019-04-10T19:00:19.720Z,8.50
2019-04-10T19:02:49.760Z,7.97
2019-04-10T19:05:23.544Z,8.18
2019-04-10T19:07:52.072Z,7.80
2019-04-10T19:10:22.142Z,8.48
2019-04-10T19:12:50.807Z,8.65
2019-04-10T19:15:20.298Z,8.00
2019-04-10T19:17:49.029Z,9.38
2019-04-10T19:20:18.022Z,9.23
2019-04-10T19:22:46.725Z,8.53
2019-04-10T19:25:16.450Z,10.55
2019-04-10T19:27:44.807Z,16.37
2019-04-10T19:30:23.618Z,18.40
2019-04-10T19:32:52.077Z,20.15
2019-04-10T19:35:21.381Z,13.78
2019-04-10T19:37:51.290Z,14.93
2019-04-10T19:40:20.027Z,16.55
2019-04-10T19:42:51.578Z,15.10
2019-04-10T19:45:20.196Z,11.43
2019-04-10T19:47:48.599Z,15.48
2019-04-10T19:50:17.331Z,13.72
2019-04-10T19:52:46.776Z,14.13
2019-04-10T19:55:15.618Z,13.32
2019-04-10T19:57:44.096Z,12.23
2019-04-10T20:00:12.746Z,11.28
2019-04-10T20:02:41.734Z,10.63
2019-04-10T20:05:10.405Z,9.80
2019-04-10T20:07:39.430Z,9.08
2019-04-10T20:10:08.791Z,8.78
2019-04-10T20:12:37.365Z,8.55
2019-04-10T20:15:10.021Z,10.78
2019-04-10T20:17:38.517Z,9.68
2019-04-10T20:20:07.029Z,9.93
2019-04-10T20:22:35.363Z,9.45
2019-04-10T20:25:03.929Z,9.55
2019-04-10T20:27:32.282Z,9.00
2019-04-10T20:30:01.600Z,10.48
2019-04-10T20:32:30.299Z,9.13
2019-04-10T20:34:58.757Z,9.00
2019-04-10T20:37:27.206Z,9.23
2019-04-10T20:39:55.902Z,8.10
2019-04-10T20:42:25.244Z,8.87
2019-04-10T20:44:54.067Z,9.90
2019-04-10T20:47:22.640Z,9.40
2019-04-10T20:49:51.229Z,9.80
2019-04-10T20:52:20.257Z,10.00
2019-04-10T20:54:48.921Z,8.60
2019-04-10T20:57:17.411Z,9.20
2019-04-10T20:59:45.800Z,7.92
2019-04-10T21:02:14.258Z,7.85
2019-04-10T21:04:53.502Z,8.10
2019-04-10T21:07:12.751Z,8.58
2019-04-10T21:09:41.729Z,8.10
2019-04-10T21:12:13.144Z,8.15
2019-04-10T21:14:40.943Z,7.68
2019-04-10T21:17:09.399Z,7.42
2019-04-10T21:19:37.790Z,7.92
2019-04-10T21:22:06.081Z,7.87
2019-04-10T21:24:35.656Z,8.03
2019-04-10T21:27:04.049Z,9.05
2019-04-10T21:29:50.558Z,8.70
2019-04-10T21:32:26.303Z,8.55
2019-04-10T21:34:55.494Z,8.45
2019-04-10T21:37:24.263Z,7.97
2019-04-10T21:39:52.756Z,8.23
2019-04-10T21:42:23.858Z,7.67
2019-04-10T21:44:51.320Z,7.50
2019-04-10T21:47:19.725Z,8.08
2019-04-10T21:49:48.483Z,7.97
2019-04-10T21:52:16.869Z,8.18
2019-04-10T21:54:51.136Z,7.92
2019-04-10T21:57:16.171Z,8.23
2019-04-10T21:59:45.507Z,8.80
2019-04-10T22:02:15.258Z,7.55
2019-04-10T22:04:43.627Z,8.03
2019-04-10T22:07:20.360Z,7.65
2019-04-10T22:09:50.819Z,7.05
2019-04-10T22:12:29.790Z,7.35
2019-04-10T22:14:50.858Z,7.77
2019-04-10T22:17:19.505Z,7.80
2019-04-10T22:19:48.097Z,7.07
2019-04-10T22:22:16.588Z,8.18
2019-04-10T22:24:44.901Z,8.60
2019-04-10T22:27:13.282Z,8.95
2019-04-10T22:29:42.668Z,8.55
2019-04-10T22:32:11.109Z,9.60
2019-04-10T22:34:39.534Z,8.48
2019-04-10T22:37:08.029Z,9.30
2019-04-10T22:39:36.469Z,8.88
2019-04-10T22:42:05.369Z,8.98
2019-04-10T22:44:40.243Z,8.68
2019-04-10T22:47:05.077Z,8.35
2019-04-10T22:49:33.613Z,8.40
2019-04-10T22:52:02.613Z,8.48
2019-04-10T22:54:31.078Z,8.95
2019-04-10T22:57:00.515Z,9.40
2019-04-10T22:59:29.034Z,8.37
2019-04-10T23:02:02.445Z,8.03
2019-04-10T23:04:28.561Z,8.87
2019-04-10T23:06:57.702Z,8.13
2019-04-10T23:09:26.424Z,8.55
2019-04-10T23:11:56.054Z,8.55
2019-04-10T23:14:24.874Z,8.38
2019-04-10T23:16:53.220Z,8.63
2019-04-10T23:19:22.407Z,8.00
2019-04-10T23:21:50.871Z,8.68
2019-04-10T23:24:19.167Z,8.15
2019-04-10T23:26:47.534Z,8.68
2019-04-10T23:29:16.005Z,8.28
2019-04-10T23:31:45.849Z,8.10
2019-04-10T23:34:14.619Z,8.75
2019-04-10T23:36:42.996Z,8.13
2019-04-10T23:39:12.273Z,8.13
2019-04-10T23:41:40.749Z,6.72
2019-04-10T23:44:09.147Z,7.77
2019-04-10T23:46:38.800Z,6.60
2019-04-10T23:49:07.321Z,19.06
2019-04-10T23:51:36.881Z,11.20
2019-04-10T23:54:05.303Z,9.53
2019-04-10T23:56:33.673Z,7.08
2019-04-10T23:59:02.449Z,6.05
